sensor_id;sensor_type;location;lat;lon;timestamp;temperature;humidity
10431;DHT22;5262;59.958;17.726;2023-01-05T00:01:43;-2.10;99.90
10431;DHT22;5262;59.958;17.726;2023-01-05T00:04:08;-2.10;99.90
10431;DHT22;5262;59.958;17.726;2023-01-05T00:06:35;-2.10;99.90
10431;DHT22;5262;59.958;17.726;2023-01-05T00:09:02;-2.10;99.90
10431;DHT22;5262;59.958;17.726;2023-01-05T00:11:28;-2.10;99.90
10431;DHT22;5262;59.958;17.726;2023-01-05T00:14:14;-2.10;99.90
10431;DHT22;5262;59.958;17.726;2023-01-05T00:16:59;-2.10;99.90
10431;DHT22;5262;59.958;17.726;2023-01-05T00:19:43;-2.00;99.90
10431;DHT22;5262;59.958;17.726;2023-01-05T00:22:28;-2.00;99.90
10431;DHT22;5262;59.958;17.726;2023-01-05T00:27:31;-2.00;99.90
10431;DHT22;5262;59.958;17.726;2023-01-05T00:29:57;-2.00;99.90
10431;DHT22;5262;59.958;17.726;2023-01-05T00:32:23;-2.00;99.90
10431;DHT22;5262;59.958;17.726;2023-01-05T00:34:49;-2.00;99.90
10431;DHT22;5262;59.958;17.726;2023-01-05T00:37:15;-2.00;99.90
10431;DHT22;5262;59.958;17.726;2023-01-05T00:39:41;-2.00;99.90
10431;DHT22;5262;59.958;17.726;2023-01-05T00:42:06;-2.00;99.90
10431;DHT22;5262;59.958;17.726;2023-01-05T00:44:32;-2.00;99.90
10431;DHT22;5262;59.958;17.726;2023-01-05T00:46:58;-2.00;99.90
10431;DHT22;5262;59.958;17.726;2023-01-05T00:49:23;-2.00;99.90
10431;DHT22;5262;59.958;17.726;2023-01-05T00:51:49;-1.90;99.90
10431;DHT22;5262;59.958;17.726;2023-01-05T00:54:15;-1.90;99.90
10431;DHT22;5262;59.958;17.726;2023-01-05T00:56:40;-2.00;99.90
10431;DHT22;5262;59.958;17.726;2023-01-05T00:59:06;-1.90;99.90
10431;DHT22;5262;59.958;17.726;2023-01-05T01:01:31;-1.90;99.90
10431;DHT22;5262;59.958;17.726;2023-01-05T01:03:57;-1.90;99.90
10431;DHT22;5262;59.958;17.726;2023-01-05T01:06:23;-2.00;99.90
10431;DHT22;5262;59.958;17.726;2023-01-05T01:08:48;-2.00;99.90
10431;DHT22;5262;59.958;17.726;2023-01-05T01:11:14;-2.00;99.90
10431;DHT22;5262;59.958;17.726;2023-01-05T01:13:44;-1.90;99.90
10431;DHT22;5262;59.958;17.726;2023-01-05T01:16:14;-2.00;99.90
10431;DHT22;5262;59.958;17.726;2023-01-05T01:18:41;-2.00;99.90
10431;DHT22;5262;59.958;17.726;2023-01-05T01:21:07;-2.00;99.90
10431;DHT22;5262;59.958;17.726;2023-01-05T01:23:33;-2.00;99.90
10431;DHT22;5262;59.958;17.726;2023-01-05T01:26:07;-2.00;99.90
10431;DHT22;5262;59.958;17.726;2023-01-05T01:28:33;-2.00;99.90
10431;DHT22;5262;59.958;17.726;2023-01-05T01:30:59;-2.10;99.90
10431;DHT22;5262;59.958;17.726;2023-01-05T01:33:26;-2.00;99.90
10431;DHT22;5262;59.958;17.726;2023-01-05T01:35:51;-2.10;99.90
10431;DHT22;5262;59.958;17.726;2023-01-05T01:38:17;-2.10;99.90
10431;DHT22;5262;59.958;17.726;2023-01-05T01:40:45;-2.10;99.90
10431;DHT22;5262;59.958;17.726;2023-01-05T01:46:23;-2.10;99.90
10431;DHT22;5262;59.958;17.726;2023-01-05T01:49:03;-2.10;99.90
10431;DHT22;5262;59.958;17.726;2023-01-05T01:51:37;-2.10;99.90
10431;DHT22;5262;59.958;17.726;2023-01-05T01:54:08;-2.10;99.90
10431;DHT22;5262;59.958;17.726;2023-01-05T01:56:41;-2.20;99.90
10431;DHT22;5262;59.958;17.726;2023-01-05T01:59:09;-2.20;99.90
10431;DHT22;5262;59.958;17.726;2023-01-05T02:01:35;-2.20;99.90
10431;DHT22;5262;59.958;17.726;2023-01-05T02:04:01;-2.20;99.90
10431;DHT22;5262;59.958;17.726;2023-01-05T02:06:28;-2.20;99.90
10431;DHT22;5262;59.958;17.726;2023-01-05T02:08:54;-2.20;99.90
10431;DHT22;5262;59.958;17.726;2023-01-05T02:14:40;-2.20;99.90
10431;DHT22;5262;59.958;17.726;2023-01-05T02:17:49;-2.20;99.90
10431;DHT22;5262;59.958;17.726;2023-01-05T02:20:31;-2.30;99.90
10431;DHT22;5262;59.958;17.726;2023-01-05T02:34:22;-2.30;99.90
10431;DHT22;5262;59.958;17.726;2023-01-05T02:36:49;-2.30;99.90
10431;DHT22;5262;59.958;17.726;2023-01-05T02:42:07;-2.30;99.90
10431;DHT22;5262;59.958;17.726;2023-01-05T02:44:34;-2.40;99.90
10431;DHT22;5262;59.958;17.726;2023-01-05T02:47:04;-2.40;99.90
10431;DHT22;5262;59.958;17.726;2023-01-05T02:49:33;-2.40;99.90
10431;DHT22;5262;59.958;17.726;2023-01-05T02:52:00;-2.40;99.90
10431;DHT22;5262;59.958;17.726;2023-01-05T02:54:36;-2.40;99.90
10431;DHT22;5262;59.958;17.726;2023-01-05T02:57:18;-2.40;99.90
10431;DHT22;5262;59.958;17.726;2023-01-05T02:59:50;-2.40;99.90
10431;DHT22;5262;59.958;17.726;2023-01-05T03:02:24;-2.40;99.90
10431;DHT22;5262;59.958;17.726;2023-01-05T03:05:03;-2.50;99.90
10431;DHT22;5262;59.958;17.726;2023-01-05T03:07:34;-2.50;99.90
10431;DHT22;5262;59.958;17.726;2023-01-05T03:10:03;-2.50;99.90
10431;DHT22;5262;59.958;17.726;2023-01-05T03:12:51;-2.50;99.90
10431;DHT22;5262;59.958;17.726;2023-01-05T03:15:39;-2.50;99.90
10431;DHT22;5262;59.958;17.726;2023-01-05T03:18:10;-2.60;99.90
10431;DHT22;5262;59.958;17.726;2023-01-05T03:20:40;-2.60;99.90
10431;DHT22;5262;59.958;17.726;2023-01-05T03:23:10;-2.50;99.90
10431;DHT22;5262;59.958;17.726;2023-01-05T03:25:55;-2.60;99.90
10431;DHT22;5262;59.958;17.726;2023-01-05T03:28:48;-2.60;99.90
10431;DHT22;5262;59.958;17.726;2023-01-05T03:31:37;-2.60;99.90
10431;DHT22;5262;59.958;17.726;2023-01-05T03:34:30;-2.70;99.90
10431;DHT22;5262;59.958;17.726;2023-01-05T03:37:23;-2.70;99.90
10431;DHT22;5262;59.958;17.726;2023-01-05T03:39:50;-2.60;99.90
10431;DHT22;5262;59.958;17.726;2023-01-05T03:42:16;-2.70;99.90
10431;DHT22;5262;59.958;17.726;2023-01-05T03:44:44;-2.70;99.90
10431;DHT22;5262;59.958;17.726;2023-01-05T03:47:11;-2.70;99.90
10431;DHT22;5262;59.958;17.726;2023-01-05T03:49:36;-2.80;99.90
10431;DHT22;5262;59.958;17.726;2023-01-05T03:52:03;-2.80;99.90
10431;DHT22;5262;59.958;17.726;2023-01-05T03:54:29;-2.70;99.90
10431;DHT22;5262;59.958;17.726;2023-01-05T03:56:54;-2.80;99.90
10431;DHT22;5262;59.958;17.726;2023-01-05T03:59:20;-2.80;99.90
10431;DHT22;5262;59.958;17.726;2023-01-05T04:01:46;-2.80;99.90
10431;DHT22;5262;59.958;17.726;2023-01-05T04:04:12;-2.80;99.90
10431;DHT22;5262;59.958;17.726;2023-01-05T04:06:38;-2.80;99.90
10431;DHT22;5262;59.958;17.726;2023-01-05T04:09:04;-2.80;99.90
10431;DHT22;5262;59.958;17.726;2023-01-05T04:11:29;-2.80;99.90
10431;DHT22;5262;59.958;17.726;2023-01-05T04:13:55;-2.90;99.90
10431;DHT22;5262;59.958;17.726;2023-01-05T04:16:21;-2.90;99.90
10431;DHT22;5262;59.958;17.726;2023-01-05T04:18:46;-2.80;99.90
10431;DHT22;5262;59.958;17.726;2023-01-05T04:21:13;-2.80;99.90
10431;DHT22;5262;59.958;17.726;2023-01-05T04:23:39;-2.90;99.90
10431;DHT22;5262;59.958;17.726;2023-01-05T04:26:04;-2.90;99.90
10431;DHT22;5262;59.958;17.726;2023-01-05T04:28:30;-2.90;99.90
10431;DHT22;5262;59.958;17.726;2023-01-05T04:30:56;-2.90;99.90
10431;DHT22;5262;59.958;17.726;2023-01-05T04:33:23;-2.90;99.90
10431;DHT22;5262;59.958;17.726;2023-01-05T04:35:49;-2.90;99.90
10431;DHT22;5262;59.958;17.726;2023-01-05T04:38:14;-2.90;99.90
10431;DHT22;5262;59.958;17.726;2023-01-05T04:40:40;-3.00;99.90
10431;DHT22;5262;59.958;17.726;2023-01-05T04:43:06;-2.90;99.90
10431;DHT22;5262;59.958;17.726;2023-01-05T04:45:32;-2.90;99.90
10431;DHT22;5262;59.958;17.726;2023-01-05T04:47:58;-2.90;99.90
10431;DHT22;5262;59.958;17.726;2023-01-05T04:50:24;-2.90;99.90
10431;DHT22;5262;59.958;17.726;2023-01-05T04:52:50;-3.00;99.90
10431;DHT22;5262;59.958;17.726;2023-01-05T04:55:15;-3.00;99.90
10431;DHT22;5262;59.958;17.726;2023-01-05T04:57:41;-3.00;99.90
10431;DHT22;5262;59.958;17.726;2023-01-05T05:00:07;-3.00;99.90
10431;DHT22;5262;59.958;17.726;2023-01-05T05:02:33;-3.00;99.90
10431;DHT22;5262;59.958;17.726;2023-01-05T05:04:59;-3.00;99.90
10431;DHT22;5262;59.958;17.726;2023-01-05T05:07:25;-3.00;99.90
10431;DHT22;5262;59.958;17.726;2023-01-05T05:09:50;-3.00;99.90
10431;DHT22;5262;59.958;17.726;2023-01-05T05:12:16;-3.00;99.90
10431;DHT22;5262;59.958;17.726;2023-01-05T05:14:46;-3.00;99.90
10431;DHT22;5262;59.958;17.726;2023-01-05T05:17:12;-3.10;99.90
10431;DHT22;5262;59.958;17.726;2023-01-05T05:19:37;-3.10;99.90
10431;DHT22;5262;59.958;17.726;2023-01-05T05:22:03;-3.10;99.90
10431;DHT22;5262;59.958;17.726;2023-01-05T05:24:29;-3.10;99.90
10431;DHT22;5262;59.958;17.726;2023-01-05T05:26:55;-3.10;99.90
10431;DHT22;5262;59.958;17.726;2023-01-05T05:29:22;-3.10;99.90
10431;DHT22;5262;59.958;17.726;2023-01-05T05:31:48;-3.10;99.90
10431;DHT22;5262;59.958;17.726;2023-01-05T05:34:14;-3.10;99.90
10431;DHT22;5262;59.958;17.726;2023-01-05T05:36:39;-3.10;99.90
10431;DHT22;5262;59.958;17.726;2023-01-05T05:39:05;-3.10;99.90
10431;DHT22;5262;59.958;17.726;2023-01-05T05:41:31;-3.10;99.90
10431;DHT22;5262;59.958;17.726;2023-01-05T05:43:57;-3.10;99.90
10431;DHT22;5262;59.958;17.726;2023-01-05T05:46:26;-3.10;99.90
10431;DHT22;5262;59.958;17.726;2023-01-05T05:48:56;-3.20;99.90
10431;DHT22;5262;59.958;17.726;2023-01-05T05:51:22;-3.20;99.90
10431;DHT22;5262;59.958;17.726;2023-01-05T05:53:48;-3.20;99.90
10431;DHT22;5262;59.958;17.726;2023-01-05T05:56:13;-3.20;99.90
10431;DHT22;5262;59.958;17.726;2023-01-05T05:58:39;-3.30;99.90
10431;DHT22;5262;59.958;17.726;2023-01-05T06:01:05;-3.30;99.90
10431;DHT22;5262;59.958;17.726;2023-01-05T06:03:31;-3.30;99.90
10431;DHT22;5262;59.958;17.726;2023-01-05T06:05:56;-3.30;99.90
10431;DHT22;5262;59.958;17.726;2023-01-05T06:08:22;-3.30;99.90
10431;DHT22;5262;59.958;17.726;2023-01-05T06:10:49;-3.30;99.90
10431;DHT22;5262;59.958;17.726;2023-01-05T06:13:15;-3.30;99.90
10431;DHT22;5262;59.958;17.726;2023-01-05T06:15:41;-3.30;99.90
10431;DHT22;5262;59.958;17.726;2023-01-05T06:18:07;-3.40;99.90
10431;DHT22;5262;59.958;17.726;2023-01-05T06:20:32;-3.40;99.90
10431;DHT22;5262;59.958;17.726;2023-01-05T06:22:58;-3.40;99.90
10431;DHT22;5262;59.958;17.726;2023-01-05T06:25:23;-3.50;99.90
10431;DHT22;5262;59.958;17.726;2023-01-05T06:27:49;-3.50;99.90
10431;DHT22;5262;59.958;17.726;2023-01-05T06:30:15;-3.50;99.90
10431;DHT22;5262;59.958;17.726;2023-01-05T06:32:40;-3.50;99.90
10431;DHT22;5262;59.958;17.726;2023-01-05T06:35:06;-3.60;99.90
10431;DHT22;5262;59.958;17.726;2023-01-05T06:37:32;-3.60;99.90
10431;DHT22;5262;59.958;17.726;2023-01-05T06:39:57;-3.60;99.90
10431;DHT22;5262;59.958;17.726;2023-01-05T06:42:24;-3.60;99.90
10431;DHT22;5262;59.958;17.726;2023-01-05T06:44:50;-3.60;99.90
10431;DHT22;5262;59.958;17.726;2023-01-05T06:47:16;-3.70;99.90
10431;DHT22;5262;59.958;17.726;2023-01-05T06:49:41;-3.70;99.90
10431;DHT22;5262;59.958;17.726;2023-01-05T06:52:07;-3.80;99.90
10431;DHT22;5262;59.958;17.726;2023-01-05T06:54:32;-3.80;99.90
10431;DHT22;5262;59.958;17.726;2023-01-05T06:56:58;-3.80;99.90
10431;DHT22;5262;59.958;17.726;2023-01-05T06:59:24;-3.80;99.90
10431;DHT22;5262;59.958;17.726;2023-01-05T07:01:49;-3.80;99.90
10431;DHT22;5262;59.958;17.726;2023-01-05T07:04:15;-3.80;99.90
10431;DHT22;5262;59.958;17.726;2023-01-05T07:06:40;-3.90;99.90
10431;DHT22;5262;59.958;17.726;2023-01-05T07:09:06;-3.90;99.90
10431;DHT22;5262;59.958;17.726;2023-01-05T07:11:32;-4.00;99.90
10431;DHT22;5262;59.958;17.726;2023-01-05T07:13:57;-4.10;99.90
10431;DHT22;5262;59.958;17.726;2023-01-05T07:16:23;-4.10;99.90
10431;DHT22;5262;59.958;17.726;2023-01-05T07:18:49;-4.10;99.90
10431;DHT22;5262;59.958;17.726;2023-01-05T07:21:14;-4.20;99.90
10431;DHT22;5262;59.958;17.726;2023-01-05T07:23:40;-4.20;99.90
10431;DHT22;5262;59.958;17.726;2023-01-05T07:26:07;-4.30;99.90
10431;DHT22;5262;59.958;17.726;2023-01-05T07:28:34;-4.30;99.90
10431;DHT22;5262;59.958;17.726;2023-01-05T07:31:00;-4.30;99.90
10431;DHT22;5262;59.958;17.726;2023-01-05T07:33:25;-4.40;99.90
10431;DHT22;5262;59.958;17.726;2023-01-05T07:35:51;-4.40;99.90
10431;DHT22;5262;59.958;17.726;2023-01-05T07:38:16;-4.40;99.90
10431;DHT22;5262;59.958;17.726;2023-01-05T07:40:42;-4.50;99.90
10431;DHT22;5262;59.958;17.726;2023-01-05T07:43:08;-4.50;99.90
10431;DHT22;5262;59.958;17.726;2023-01-05T07:45:33;-4.50;99.90
10431;DHT22;5262;59.958;17.726;2023-01-05T07:47:59;-4.50;99.90
10431;DHT22;5262;59.958;17.726;2023-01-05T07:50:25;-4.50;99.90
10431;DHT22;5262;59.958;17.726;2023-01-05T07:52:51;-4.50;99.90
10431;DHT22;5262;59.958;17.726;2023-01-05T07:55:17;-4.60;99.90
10431;DHT22;5262;59.958;17.726;2023-01-05T07:57:43;-4.60;99.90
10431;DHT22;5262;59.958;17.726;2023-01-05T08:00:09;-4.60;99.90
10431;DHT22;5262;59.958;17.726;2023-01-05T08:02:35;-4.60;99.90
10431;DHT22;5262;59.958;17.726;2023-01-05T08:05:01;-4.70;99.90
10431;DHT22;5262;59.958;17.726;2023-01-05T08:07:27;-4.70;99.90
10431;DHT22;5262;59.958;17.726;2023-01-05T08:09:52;-4.80;99.90
10431;DHT22;5262;59.958;17.726;2023-01-05T08:12:36;-4.80;99.90
10431;DHT22;5262;59.958;17.726;2023-01-05T08:15:22;-4.80;99.90
10431;DHT22;5262;59.958;17.726;2023-01-05T08:17:47;-4.80;99.90
10431;DHT22;5262;59.958;17.726;2023-01-05T08:20:13;-4.80;99.90
10431;DHT22;5262;59.958;17.726;2023-01-05T08:22:39;-4.90;99.90
10431;DHT22;5262;59.958;17.726;2023-01-05T08:25:05;-4.90;99.90
10431;DHT22;5262;59.958;17.726;2023-01-05T08:27:30;-5.00;99.90
10431;DHT22;5262;59.958;17.726;2023-01-05T08:29:56;-5.00;99.90
10431;DHT22;5262;59.958;17.726;2023-01-05T08:32:22;-5.00;99.90
10431;DHT22;5262;59.958;17.726;2023-01-05T08:34:47;-5.10;99.90
10431;DHT22;5262;59.958;17.726;2023-01-05T08:37:13;-5.00;99.90
10431;DHT22;5262;59.958;17.726;2023-01-05T08:39:39;-5.00;99.90
10431;DHT22;5262;59.958;17.726;2023-01-05T08:42:04;-5.00;99.90
10431;DHT22;5262;59.958;17.726;2023-01-05T08:44:30;-5.00;99.90
10431;DHT22;5262;59.958;17.726;2023-01-05T08:46:55;-5.00;99.90
10431;DHT22;5262;59.958;17.726;2023-01-05T08:49:21;-5.00;99.90
10431;DHT22;5262;59.958;17.726;2023-01-05T08:51:48;-5.00;99.90
10431;DHT22;5262;59.958;17.726;2023-01-05T08:54:14;-5.00;99.90
10431;DHT22;5262;59.958;17.726;2023-01-05T08:56:39;-5.00;99.90
10431;DHT22;5262;59.958;17.726;2023-01-05T08:59:11;-4.90;99.90
10431;DHT22;5262;59.958;17.726;2023-01-05T09:01:37;-4.90;99.90
10431;DHT22;5262;59.958;17.726;2023-01-05T09:04:03;-4.90;99.90
10431;DHT22;5262;59.958;17.726;2023-01-05T09:06:29;-4.90;99.90
10431;DHT22;5262;59.958;17.726;2023-01-05T09:08:54;-4.90;99.90
10431;DHT22;5262;59.958;17.726;2023-01-05T09:11:22;-4.90;99.90
10431;DHT22;5262;59.958;17.726;2023-01-05T09:13:56;-4.90;99.90
10431;DHT22;5262;59.958;17.726;2023-01-05T09:16:25;-4.90;99.90
10431;DHT22;5262;59.958;17.726;2023-01-05T09:18:51;-4.80;99.90
10431;DHT22;5262;59.958;17.726;2023-01-05T09:21:17;-4.80;99.90
10431;DHT22;5262;59.958;17.726;2023-01-05T09:23:43;-4.70;99.90
10431;DHT22;5262;59.958;17.726;2023-01-05T09:26:11;-4.60;99.90
10431;DHT22;5262;59.958;17.726;2023-01-05T09:28:37;-4.50;99.90
10431;DHT22;5262;59.958;17.726;2023-01-05T09:33:32;-4.40;99.90
10431;DHT22;5262;59.958;17.726;2023-01-05T09:35:58;-4.40;99.90
10431;DHT22;5262;59.958;17.726;2023-01-05T09:38:23;-4.40;99.90
10431;DHT22;5262;59.958;17.726;2023-01-05T09:40:51;-4.30;99.90
10431;DHT22;5262;59.958;17.726;2023-01-05T09:43:22;-4.30;99.90
10431;DHT22;5262;59.958;17.726;2023-01-05T09:45:49;-4.30;99.90
10431;DHT22;5262;59.958;17.726;2023-01-05T09:48:16;-4.30;99.90
10431;DHT22;5262;59.958;17.726;2023-01-05T09:50:43;-4.20;99.90
10431;DHT22;5262;59.958;17.726;2023-01-05T09:53:12;-4.20;99.90
10431;DHT22;5262;59.958;17.726;2023-01-05T09:55:40;-4.20;99.90
10431;DHT22;5262;59.958;17.726;2023-01-05T09:58:13;-4.10;99.90
10431;DHT22;5262;59.958;17.726;2023-01-05T10:00:43;-4.10;99.90
10431;DHT22;5262;59.958;17.726;2023-01-05T10:03:18;-4.20;99.90
10431;DHT22;5262;59.958;17.726;2023-01-05T10:05:46;-4.20;99.90
10431;DHT22;5262;59.958;17.726;2023-01-05T10:08:17;-4.10;99.90
10431;DHT22;5262;59.958;17.726;2023-01-05T10:10:46;-4.20;99.90
10431;DHT22;5262;59.958;17.726;2023-01-05T10:13:39;-4.30;99.90
10431;DHT22;5262;59.958;17.726;2023-01-05T10:16:13;-4.40;99.90
10431;DHT22;5262;59.958;17.726;2023-01-05T10:18:40;-4.50;99.90
10431;DHT22;5262;59.958;17.726;2023-01-05T10:21:31;-4.50;99.90
10431;DHT22;5262;59.958;17.726;2023-01-05T10:24:26;-4.50;99.90
10431;DHT22;5262;59.958;17.726;2023-01-05T10:26:58;-4.60;99.90
10431;DHT22;5262;59.958;17.726;2023-01-05T10:29:39;-4.70;99.90
10431;DHT22;5262;59.958;17.726;2023-01-05T10:32:10;-4.70;99.90
10431;DHT22;5262;59.958;17.726;2023-01-05T10:34:55;-4.70;99.90
10431;DHT22;5262;59.958;17.726;2023-01-05T10:37:52;-4.80;99.90
10431;DHT22;5262;59.958;17.726;2023-01-05T10:40:25;-4.80;99.90
10431;DHT22;5262;59.958;17.726;2023-01-05T10:43:19;-4.90;99.90
10431;DHT22;5262;59.958;17.726;2023-01-05T10:45:48;-4.90;99.90
10431;DHT22;5262;59.958;17.726;2023-01-05T10:48:16;-4.90;99.90
10431;DHT22;5262;59.958;17.726;2023-01-05T10:50:45;-4.90;99.90
10431;DHT22;5262;59.958;17.726;2023-01-05T10:53:16;-4.90;99.90
10431;DHT22;5262;59.958;17.726;2023-01-05T10:56:04;-4.90;99.90
10431;DHT22;5262;59.958;17.726;2023-01-05T10:58:36;-5.00;99.90
10431;DHT22;5262;59.958;17.726;2023-01-05T11:01:24;-4.80;99.90
10431;DHT22;5262;59.958;17.726;2023-01-05T11:04:03;-4.80;99.90
10431;DHT22;5262;59.958;17.726;2023-01-05T11:06:32;-4.70;99.90
10431;DHT22;5262;59.958;17.726;2023-01-05T11:09:20;-4.80;99.90
10431;DHT22;5262;59.958;17.726;2023-01-05T11:11:58;-4.90;99.90
10431;DHT22;5262;59.958;17.726;2023-01-05T11:14:26;-4.90;99.90
10431;DHT22;5262;59.958;17.726;2023-01-05T11:16:54;-4.80;99.90
10431;DHT22;5262;59.958;17.726;2023-01-05T11:19:31;-4.80;99.90
10431;DHT22;5262;59.958;17.726;2023-01-05T11:21:59;-4.70;99.90
10431;DHT22;5262;59.958;17.726;2023-01-05T11:24:32;-4.60;99.90
10431;DHT22;5262;59.958;17.726;2023-01-05T11:27:21;-4.60;99.90
10431;DHT22;5262;59.958;17.726;2023-01-05T11:32:42;-4.60;99.90
10431;DHT22;5262;59.958;17.726;2023-01-05T11:35:26;-4.50;99.90
10431;DHT22;5262;59.958;17.726;2023-01-05T11:37:54;-4.50;99.90
10431;DHT22;5262;59.958;17.726;2023-01-05T11:40:25;-4.50;99.90
10431;DHT22;5262;59.958;17.726;2023-01-05T11:42:52;-4.60;99.90
10431;DHT22;5262;59.958;17.726;2023-01-05T11:47:52;-4.70;99.90
10431;DHT22;5262;59.958;17.726;2023-01-05T11:50:30;-4.80;99.90
10431;DHT22;5262;59.958;17.726;2023-01-05T11:52:59;-4.70;99.90
10431;DHT22;5262;59.958;17.726;2023-01-05T11:55:30;-4.80;99.90
10431;DHT22;5262;59.958;17.726;2023-01-05T12:09:54;-4.90;99.90
10431;DHT22;5262;59.958;17.726;2023-01-05T12:23:48;-5.10;99.90
10431;DHT22;5262;59.958;17.726;2023-01-05T12:30:00;-5.10;99.90
10431;DHT22;5262;59.958;17.726;2023-01-05T12:44:23;-5.40;99.90
10431;DHT22;5262;59.958;17.726;2023-01-05T12:49:41;-5.60;99.90
10431;DHT22;5262;59.958;17.726;2023-01-05T12:52:14;-5.70;99.90
10431;DHT22;5262;59.958;17.726;2023-01-05T12:54:52;-5.70;99.90
10431;DHT22;5262;59.958;17.726;2023-01-05T12:57:32;-5.70;99.90
10431;DHT22;5262;59.958;17.726;2023-01-05T13:00:08;-5.80;99.90
10431;DHT22;5262;59.958;17.726;2023-01-05T13:02:43;-5.70;99.90
10431;DHT22;5262;59.958;17.726;2023-01-05T13:05:17;-5.70;99.90
10431;DHT22;5262;59.958;17.726;2023-01-05T13:10:18;-5.60;99.90
10431;DHT22;5262;59.958;17.726;2023-01-05T13:12:47;-5.70;99.90
10431;DHT22;5262;59.958;17.726;2023-01-05T13:16:00;-5.70;99.90
10431;DHT22;5262;59.958;17.726;2023-01-05T13:18:24;-5.70;99.90
10431;DHT22;5262;59.958;17.726;2023-01-05T13:21:02;-5.70;99.90
10431;DHT22;5262;59.958;17.726;2023-01-05T13:24:05;-5.80;99.90
10431;DHT22;5262;59.958;17.726;2023-01-05T13:26:33;-5.80;99.90
10431;DHT22;5262;59.958;17.726;2023-01-05T13:28:59;-5.80;99.90
10431;DHT22;5262;59.958;17.726;2023-01-05T13:34:26;-5.70;99.90
10431;DHT22;5262;59.958;17.726;2023-01-05T13:37:24;-5.80;99.90
10431;DHT22;5262;59.958;17.726;2023-01-05T13:53:47;-6.10;99.90
10431;DHT22;5262;59.958;17.726;2023-01-05T13:56:24;-6.20;99.90
10431;DHT22;5262;59.958;17.726;2023-01-05T13:58:58;-6.30;99.90
10431;DHT22;5262;59.958;17.726;2023-01-05T14:01:39;-6.40;99.90
10431;DHT22;5262;59.958;17.726;2023-01-05T14:04:24;-6.50;99.90
10431;DHT22;5262;59.958;17.726;2023-01-05T14:07:14;-6.60;99.90
10431;DHT22;5262;59.958;17.726;2023-01-05T14:09:43;-6.70;99.90
10431;DHT22;5262;59.958;17.726;2023-01-05T14:15:04;-6.90;99.90
10431;DHT22;5262;59.958;17.726;2023-01-05T14:23:50;-7.10;99.90
10431;DHT22;5262;59.958;17.726;2023-01-05T14:25:59;-7.20;99.90
10431;DHT22;5262;59.958;17.726;2023-01-05T14:33:33;-7.40;99.90
10431;DHT22;5262;59.958;17.726;2023-01-05T14:36:30;-7.50;99.90
10431;DHT22;5262;59.958;17.726;2023-01-05T14:38:58;-7.60;99.90
10431;DHT22;5262;59.958;17.726;2023-01-05T14:41:27;-7.70;99.90
10431;DHT22;5262;59.958;17.726;2023-01-05T14:44:05;-7.70;99.90
10431;DHT22;5262;59.958;17.726;2023-01-05T14:46:46;-7.80;99.90
10431;DHT22;5262;59.958;17.726;2023-01-05T14:49:25;-7.90;99.90
10431;DHT22;5262;59.958;17.726;2023-01-05T14:51:56;-7.90;99.90
10431;DHT22;5262;59.958;17.726;2023-01-05T14:57:33;-8.10;99.90
10431;DHT22;5262;59.958;17.726;2023-01-05T15:00:14;-8.10;99.90
10431;DHT22;5262;59.958;17.726;2023-01-05T15:03:12;-8.10;99.90
10431;DHT22;5262;59.958;17.726;2023-01-05T15:05:50;-8.20;99.90
10431;DHT22;5262;59.958;17.726;2023-01-05T15:12:06;-8.30;99.90
10431;DHT22;5262;59.958;17.726;2023-01-05T15:20:00;-8.40;99.90
10431;DHT22;5262;59.958;17.726;2023-01-05T15:22:31;-8.40;99.90
10431;DHT22;5262;59.958;17.726;2023-01-05T15:25:11;-8.50;99.90
10431;DHT22;5262;59.958;17.726;2023-01-05T15:36:31;-8.60;99.90
10431;DHT22;5262;59.958;17.726;2023-01-05T15:38:58;-8.70;99.90
10431;DHT22;5262;59.958;17.726;2023-01-05T15:41:25;-8.70;99.90
10431;DHT22;5262;59.958;17.726;2023-01-05T15:43:52;-8.80;99.90
10431;DHT22;5262;59.958;17.726;2023-01-05T15:46:21;-8.80;99.90
10431;DHT22;5262;59.958;17.726;2023-01-05T15:48:50;-8.90;99.90
10431;DHT22;5262;59.958;17.726;2023-01-05T15:51:23;-8.80;99.90
10431;DHT22;5262;59.958;17.726;2023-01-05T15:54:03;-8.90;99.90
10431;DHT22;5262;59.958;17.726;2023-01-05T15:56:38;-9.00;99.90
10431;DHT22;5262;59.958;17.726;2023-01-05T15:59:30;-9.00;99.90
10431;DHT22;5262;59.958;17.726;2023-01-05T16:01:55;-9.00;99.90
10431;DHT22;5262;59.958;17.726;2023-01-05T16:04:21;-9.00;99.90
10431;DHT22;5262;59.958;17.726;2023-01-05T16:06:50;-9.00;99.90
10431;DHT22;5262;59.958;17.726;2023-01-05T16:09:33;-9.00;99.90
10431;DHT22;5262;59.958;17.726;2023-01-05T16:12:11;-9.00;99.90
10431;DHT22;5262;59.958;17.726;2023-01-05T16:14:50;-9.10;99.90
10431;DHT22;5262;59.958;17.726;2023-01-05T16:17:23;-9.10;99.90
10431;DHT22;5262;59.958;17.726;2023-01-05T16:19:57;-9.10;99.90
10431;DHT22;5262;59.958;17.726;2023-01-05T16:22:36;-9.00;99.90
10431;DHT22;5262;59.958;17.726;2023-01-05T16:25:20;-9.00;99.90
10431;DHT22;5262;59.958;17.726;2023-01-05T16:27:52;-9.10;99.90
10431;DHT22;5262;59.958;17.726;2023-01-05T16:30:29;-9.00;99.90
10431;DHT22;5262;59.958;17.726;2023-01-05T16:35:48;-9.00;99.90
10431;DHT22;5262;59.958;17.726;2023-01-05T16:43:24;-9.10;99.90
10431;DHT22;5262;59.958;17.726;2023-01-05T16:45:52;-9.10;99.90
10431;DHT22;5262;59.958;17.726;2023-01-05T16:51:15;-9.20;99.90
10431;DHT22;5262;59.958;17.726;2023-01-05T16:56:45;-9.20;99.90
10431;DHT22;5262;59.958;17.726;2023-01-05T16:59:51;-9.20;99.90
10431;DHT22;5262;59.958;17.726;2023-01-05T17:02:43;-9.20;99.90
10431;DHT22;5262;59.958;17.726;2023-01-05T17:05:17;-9.20;99.90
10431;DHT22;5262;59.958;17.726;2023-01-05T17:07:45;-9.20;99.90
10431;DHT22;5262;59.958;17.726;2023-01-05T17:10:18;-9.20;99.90
10431;DHT22;5262;59.958;17.726;2023-01-05T17:12:53;-9.20;99.90
10431;DHT22;5262;59.958;17.726;2023-01-05T17:15:22;-9.10;99.90
10431;DHT22;5262;59.958;17.726;2023-01-05T17:17:49;-9.10;99.90
10431;DHT22;5262;59.958;17.726;2023-01-05T17:20:15;-9.10;99.90
10431;DHT22;5262;59.958;17.726;2023-01-05T17:22:40;-9.10;99.90
10431;DHT22;5262;59.958;17.726;2023-01-05T17:25:11;-9.10;99.90
10431;DHT22;5262;59.958;17.726;2023-01-05T17:27:37;-9.10;99.90
10431;DHT22;5262;59.958;17.726;2023-01-05T17:30:10;-9.10;99.90
10431;DHT22;5262;59.958;17.726;2023-01-05T17:32:36;-9.10;99.90
10431;DHT22;5262;59.958;17.726;2023-01-05T17:35:01;-9.10;99.90
10431;DHT22;5262;59.958;17.726;2023-01-05T17:37:27;-9.10;99.90
10431;DHT22;5262;59.958;17.726;2023-01-05T17:39:53;-9.10;99.90
10431;DHT22;5262;59.958;17.726;2023-01-05T17:42:18;-9.10;99.90
10431;DHT22;5262;59.958;17.726;2023-01-05T17:45:02;-9.00;99.90
10431;DHT22;5262;59.958;17.726;2023-01-05T17:47:28;-9.00;99.90
10431;DHT22;5262;59.958;17.726;2023-01-05T17:49:54;-9.00;99.90
10431;DHT22;5262;59.958;17.726;2023-01-05T17:52:19;-9.10;99.90
10431;DHT22;5262;59.958;17.726;2023-01-05T17:54:45;-9.00;99.90
10431;DHT22;5262;59.958;17.726;2023-01-05T17:57:11;-9.00;99.90
10431;DHT22;5262;59.958;17.726;2023-01-05T17:59:37;-9.00;99.90
10431;DHT22;5262;59.958;17.726;2023-01-05T18:02:03;-9.00;99.90
10431;DHT22;5262;59.958;17.726;2023-01-05T18:04:28;-8.90;99.90
10431;DHT22;5262;59.958;17.726;2023-01-05T18:06:54;-8.90;99.90
10431;DHT22;5262;59.958;17.726;2023-01-05T18:09:20;-8.90;99.90
10431;DHT22;5262;59.958;17.726;2023-01-05T18:11:45;-8.80;99.90